Tylerton, Maryland
Current Conditions -  °F | °C
As of 8:58 PM on Wednesday 26 Nov 2014 (Local Time) from KTGI Reporting Station
Overcast Overcast  
Wind Chill: 34°   Ceiling: 1200
Heat Index: 43°   Visibility: 10mi
Dew Point: 39°   Wind: 21mph
Humidity: 87%   Direction: 330°NNW
Pressure: 29.94"   Gusts: 28mph
Location:  37.97°N, 76.02°W
Report Text: KTGI 270158Z AUTO 33018G24KT 10SM OVC012 06/04 A2994 RMK AO1
Loading
Personal Weather Stations






























Interactive Weather Map New forecast layout! Learn more

10-Day Weather Forecast

Advertisements
Track Severe Weather on mobile